Thunder radar more information blitzortung!


avis per Pluja more information rain snow radar


Visita la nostra xarxa de llocs de meteo:

Template documentation
and downloads

And another site



Rain From: 16-11-2018 00:00 Until: 09:59 warning for: Rain Level: Yellow info button

Pagina Historial Weather Underground text

Diari Resum January 6, 2018 Unitats:  Tant    Imperial   Mètric
« Previous Dia
SegĂźent Dia »
Diari Setmana Mensual Anual Personalitzada
  Maxima: Minima: Media:
Temperatura: TemperatureC °F /  -17.8 °C 4.6 °F /  -15.2 °C 11.5 °F /  -11.4 °C
Punt de rosada: DewpointC °F /  -17.8 °C -1.4 °F /  -18.6 °C 6.1 °F /  -14.4 °C
Humitat: Humidity % 52 % 70 %
Wind Speed: WindSpeedKMH mph /  0 km/h - 8.7 mph /  14 km/h
RĂ fegues de vent: WindSpeedGustKMH mph /  0 km/h - -
Vent:- - East
Pression baro: PressurehPa in /  0 hPa 996.8 in /  33751.6 hPa -
Precipitacions: 10.4 in /  264.16 mm    
Historical Graphs
 
 
Dades de taula per January 6, 2018
Temps Temperatura Punt de rosada Pression baro Vent Wind Speed RĂ fegues de vent Humitat Rainfall Rate (Hourly)
TemperatureC °F /  -17.8 °C DewpointC °F /  -17.8 °C PressurehPa in /  0 hPa Calm     Humidity % HourlyPrecipMM in /  0 mm
00:00 4.6 °F /  -15.2 °C -1.4 °F /  -18.6 °C 1003.9 in /  33992.1 hPa Calm   1.6 mph /  2.6 km/h 65 % 0.0 in /  0 mm
00:03 8.7 °F /  -12.9 °C -0.3 °F /  -17.9 °C 1007.0 in /  34097 hPa NE 1.9 mph /  3.1 km/h   53 % 0.0 in /  0 mm
00:04 8.7 °F /  -12.9 °C -0.3 °F /  -17.9 °C 1007.0 in /  34097 hPa Calm     53 % 0.0 in /  0 mm
00:09 8.7 °F /  -12.9 °C -0.6 °F /  -18.1 °C 1007.0 in /  34097 hPa NW 1.9 mph /  3.1 km/h 2.3 mph /  3.7 km/h 52 % 0.0 in /  0 mm
00:10 4.8 °F /  -15.1 °C -1.2 °F /  -18.4 °C 1003.9 in /  33992.1 hPa SE 1.6 mph /  2.6 km/h 3.2 mph /  5.1 km/h 65 % 0.0 in /  0 mm
00:11 8.7 °F /  -12.9 °C -0.6 °F /  -18.1 °C 1007.0 in /  34097 hPa NW 1.9 mph /  3.1 km/h   52 % 0.0 in /  0 mm
00:16 8.7 °F /  -12.9 °C -0.3 °F /  -17.9 °C 1007.0 in /  34097 hPa WNW 3.7 mph /  6 km/h 3.7 mph /  6 km/h 53 % 0.0 in /  0 mm
00:18 8.7 °F /  -12.9 °C -0.3 °F /  -17.9 °C 1007.0 in /  34097 hPa WNW 1.9 mph /  3.1 km/h   53 % 0.0 in /  0 mm
00:23 8.5 °F /  -13.1 °C -0.6 °F /  -18.1 °C 1007.0 in /  34097 hPa West 3.7 mph /  6 km/h 3.7 mph /  6 km/h 53 % 0.0 in /  0 mm
00:25 8.5 °F /  -13.1 °C -0.6 °F /  -18.1 °C 1007.0 in /  34097 hPa West 1.9 mph /  3.1 km/h 1.9 mph /  3.1 km/h 53 % 0.0 in /  0 mm
00:30 8.5 °F /  -13.1 °C -0.6 °F /  -18.1 °C 1007.0 in /  34097 hPa ENE 1.9 mph /  3.1 km/h 2.3 mph /  3.7 km/h 53 % 0.0 in /  0 mm
00:31 8.4 °F /  -13.1 °C -0.6 °F /  -18.1 °C 1007.0 in /  34097 hPa ENE 2.3 mph /  3.7 km/h   53 % 0.0 in /  0 mm
00:36 8.3 °F /  -13.2 °C -0.5 °F /  -18.1 °C 1006.0 in /  34063.2 hPa NNE 1.9 mph /  3.1 km/h   54 % 0.0 in /  0 mm
00:38 8.3 °F /  -13.2 °C -0.5 °F /  -18.1 °C 1006.0 in /  34063.2 hPa Calm     54 % 0.0 in /  0 mm
00:43 8.2 °F /  -13.2 °C -0.6 °F /  -18.1 °C 1006.0 in /  34063.2 hPa West 3.2 mph /  5.1 km/h 3.2 mph /  5.1 km/h 54 % 0.0 in /  0 mm
00:48 8.1 °F /  -13.3 °C -0.9 °F /  -18.3 °C 1006.0 in /  34063.2 hPa WSW 3.7 mph /  6 km/h 3.7 mph /  6 km/h 53 % 0.0 in /  0 mm
00:50 8.2 °F /  -13.2 °C -0.6 °F /  -18.1 °C 1006.0 in /  34063.2 hPa WSW 3.7 mph /  6 km/h 3.7 mph /  6 km/h 54 % 0.0 in /  0 mm
00:55 8.2 °F /  -13.2 °C -0.6 °F /  -18.1 °C 1006.0 in /  34063.2 hPa WSW 3.7 mph /  6 km/h 3.7 mph /  6 km/h 54 % 0.0 in /  0 mm
00:56 8.2 °F /  -13.2 °C -0.6 °F /  -18.1 °C 1006.0 in /  34063.2 hPa WSW 3.7 mph /  6 km/h 3.7 mph /  6 km/h 54 % 0.0 in /  0 mm
00:57 8.3 °F /  -13.2 °C -0.5 °F /  -18.1 °C 1006.0 in /  34063.2 hPa SW 2.3 mph /  3.7 km/h 2.3 mph /  3.7 km/h 54 % 0.0 in /  0 mm
01:02 8.2 °F /  -13.2 °C -0.6 °F /  -18.1 °C 1006.0 in /  34063.2 hPa ESE 5.0 mph /  8 km/h 5.0 mph /  8 km/h 54 % 0.0 in /  0 mm
01:07 7.8 °F /  -13.4 °C -0.7 °F /  -18.2 °C 1006.0 in /  34063.2 hPa ESE 5.6 mph /  9 km/h 5.6 mph /  9 km/h 55 % 0.0 in /  0 mm
01:09 7.8 °F /  -13.4 °C -0.7 °F /  -18.2 °C 1006.0 in /  34063.2 hPa NE 3.7 mph /  6 km/h 3.7 mph /  6 km/h 55 % 0.0 in /  0 mm
01:20 4.9 °F /  -15.1 °C -0.7 °F /  -18.2 °C 1003.9 in /  33992.1 hPa WSW 1.6 mph /  2.6 km/h 1.6 mph /  2.6 km/h 67 % 0.0 in /  0 mm
01:40 4.7 °F /  -15.2 °C -1.1 °F /  -18.4 °C 1003.9 in /  33992.1 hPa SW 3.2 mph /  5.1 km/h 4.8 mph /  7.7 km/h 66 % 0.0 in /  0 mm
01:50 4.8 °F /  -15.1 °C -1.0 °F /  -18.3 °C 1003.9 in /  33992.1 hPa Calm   4.8 mph /  7.7 km/h 66 % 0.0 in /  0 mm
02:00 4.8 °F /  -15.1 °C -0.8 °F /  -18.2 °C 1003.9 in /  33992.1 hPa Calm   3.2 mph /  5.1 km/h 67 % 0.0 in /  0 mm
02:10 4.8 °F /  -15.1 °C -0.8 °F /  -18.2 °C 1003.9 in /  33992.1 hPa SW 3.2 mph /  5.1 km/h 4.8 mph /  7.7 km/h 67 % 0.0 in /  0 mm
02:20 4.9 °F /  -15.1 °C -0.7 °F /  -18.2 °C 1003.9 in /  33992.1 hPa SW 1.6 mph /  2.6 km/h 3.2 mph /  5.1 km/h 67 % 0.0 in /  0 mm
02:30 5.1 °F /  -14.9 °C -0.6 °F /  -18.1 °C 1003.9 in /  33992.1 hPa Calm   4.8 mph /  7.7 km/h 67 % 0.0 in /  0 mm
02:40 5.2 °F /  -14.9 °C -0.4 °F /  -18 °C 1003.9 in /  33992.1 hPa Calm   1.6 mph /  2.6 km/h 67 % 0.0 in /  0 mm
02:50 5.3 °F /  -14.8 °C -0.3 °F /  -17.9 °C 1003.9 in /  33992.1 hPa Calm   1.6 mph /  2.6 km/h 67 % 0.0 in /  0 mm
03:00 5.4 °F /  -14.8 °C -0.2 °F /  -17.9 °C 1003.9 in /  33992.1 hPa Calm   3.2 mph /  5.1 km/h 67 % 0.0 in /  0 mm
03:10 5.7 °F /  -14.6 °C 0.2 °F /  -17.7 °C 1005.0 in /  34029.3 hPa SW 1.6 mph /  2.6 km/h 3.2 mph /  5.1 km/h 68 % 0.0 in /  0 mm
03:20 6.3 °F /  -14.3 °C 0.8 °F /  -17.3 °C 1003.9 in /  33992.1 hPa Calm     68 % 0.0 in /  0 mm
03:30 6.4 °F /  -14.2 °C 0.7 °F /  -17.4 °C 1003.9 in /  33992.1 hPa Calm   3.2 mph /  5.1 km/h 67 % 0.0 in /  0 mm
03:40 6.5 °F /  -14.2 °C 0.8 °F /  -17.3 °C 1003.9 in /  33992.1 hPa West 4.8 mph /  7.7 km/h 4.8 mph /  7.7 km/h 67 % 0.0 in /  0 mm
03:50 6.6 °F /  -14.1 °C 0.9 °F /  -17.3 °C 1005.0 in /  34029.3 hPa NW 1.6 mph /  2.6 km/h 6.4 mph /  10.3 km/h 67 % 0.0 in /  0 mm
04:00 7.0 °F /  -13.9 °C 1.1 °F /  -17.2 °C 1005.0 in /  34029.3 hPa WNW 3.2 mph /  5.1 km/h 8.0 mph /  12.9 km/h 66 % 0.0 in /  0 mm
04:10 7.3 °F /  -13.7 °C 1.6 °F /  -16.9 °C 1003.9 in /  33992.1 hPa NNE 3.2 mph /  5.1 km/h 4.8 mph /  7.7 km/h 67 % 0.0 in /  0 mm
04:20 7.5 °F /  -13.6 °C 1.6 °F /  -16.9 °C 1003.9 in /  33992.1 hPa NE 1.6 mph /  2.6 km/h 3.2 mph /  5.1 km/h 66 % 0.0 in /  0 mm
04:30 7.7 °F /  -13.5 °C 1.7 °F /  -16.8 °C 1003.9 in /  33992.1 hPa NNE 1.6 mph /  2.6 km/h 3.2 mph /  5.1 km/h 66 % 0.0 in /  0 mm
04:40 8.0 °F /  -13.3 °C 2.1 °F /  -16.6 °C 1003.9 in /  33992.1 hPa NNE 1.6 mph /  2.6 km/h 3.2 mph /  5.1 km/h 66 % 0.0 in /  0 mm
04:50 8.2 °F /  -13.2 °C 2.2 °F /  -16.6 °C 1003.9 in /  33992.1 hPa Calm   3.2 mph /  5.1 km/h 66 % 0.0 in /  0 mm
05:00 8.6 °F /  -13 °C 2.6 °F /  -16.3 °C 1003.9 in /  33992.1 hPa NE 3.2 mph /  5.1 km/h 4.8 mph /  7.7 km/h 66 % 0.0 in /  0 mm
05:20 9.0 °F /  -12.8 °C 2.8 °F /  -16.2 °C 1005.0 in /  34029.3 hPa ENE 1.6 mph /  2.6 km/h 3.2 mph /  5.1 km/h 65 % 0.0 in /  0 mm
05:30 9.0 °F /  -12.8 °C 2.8 °F /  -16.2 °C 1005.0 in /  34029.3 hPa NE 1.6 mph /  2.6 km/h 4.8 mph /  7.7 km/h 65 % 0.0 in /  0 mm
05:40 9.1 °F /  -12.7 °C 2.7 °F /  -16.3 °C 1005.0 in /  34029.3 hPa ENE 3.2 mph /  5.1 km/h 3.2 mph /  5.1 km/h 64 % 0.0 in /  0 mm
11:49 9.2 °F /  -12.7 °C 2.7 °F /  -16.3 °C 1005.0 in /  34029.3 hPa West 5.6 mph /  9 km/h 5.6 mph /  9 km/h 64 % 0.0 in /  0 mm
11:50 9.2 °F /  -12.7 °C 2.7 °F /  -16.3 °C 1005.0 in /  34029.3 hPa NE 5.6 mph /  9 km/h 5.6 mph /  9 km/h 64 % 0.0 in /  0 mm
11:55 9.3 °F /  -12.6 °C 2.8 °F /  -16.2 °C 1003.9 in /  33992.1 hPa NNE 7.4 mph /  11.9 km/h 7.4 mph /  11.9 km/h 64 % 0.0 in /  0 mm
12:00 9.3 °F /  -12.6 °C 2.8 °F /  -16.2 °C 1003.9 in /  33992.1 hPa NNE 5.6 mph /  9 km/h 5.6 mph /  9 km/h 64 % 0.0 in /  0 mm
12:05 9.5 °F /  -12.5 °C 3.0 °F /  -16.1 °C 1003.9 in /  33992.1 hPa NE 5.3 mph /  8.5 km/h 5.3 mph /  8.5 km/h 64 % 0.0 in /  0 mm
12:10 9.7 °F /  -12.4 °C 3.2 °F /  -16 °C 1003.9 in /  33992.1 hPa ENE 4.2 mph /  6.8 km/h 4.2 mph /  6.8 km/h 64 % 0.0 in /  0 mm
12:11 9.7 °F /  -12.4 °C 3.2 °F /  -16 °C 1003.9 in /  33992.1 hPa NNW 3.7 mph /  6 km/h 3.7 mph /  6 km/h 64 % 0.0 in /  0 mm
12:16 10.0 °F /  -12.2 °C 3.5 °F /  -15.8 °C 1003.9 in /  33992.1 hPa NNE 3.7 mph /  6 km/h 3.7 mph /  6 km/h 64 % 0.0 in /  0 mm
12:21 10.2 °F /  -12.1 °C 3.7 °F /  -15.7 °C 1003.9 in /  33992.1 hPa NE 3.7 mph /  6 km/h 3.7 mph /  6 km/h 64 % 0.0 in /  0 mm
12:25 10.4 °F /  -12 °C 3.9 °F /  -15.6 °C 1003.9 in /  33992.1 hPa NNE 3.7 mph /  6 km/h 3.7 mph /  6 km/h 64 % 0.0 in /  0 mm
12:30 10.6 °F /  -11.9 °C 4.1 °F /  -15.5 °C 1003.9 in /  33992.1 hPa North 5.6 mph /  9 km/h 5.6 mph /  9 km/h 64 % 0.0 in /  0 mm
12:35 10.7 °F /  -11.8 °C 4.2 °F /  -15.4 °C 1003.9 in /  33992.1 hPa NNE 3.7 mph /  6 km/h 3.7 mph /  6 km/h 64 % 0.0 in /  0 mm
12:40 10.6 °F /  -11.9 °C 4.1 °F /  -15.5 °C 1003.9 in /  33992.1 hPa ENE 7.4 mph /  11.9 km/h 7.4 mph /  11.9 km/h 64 % 0.0 in /  0 mm
12:46 10.6 °F /  -11.9 °C 3.8 °F /  -15.7 °C 1003.9 in /  33992.1 hPa NNE 7.4 mph /  11.9 km/h 7.4 mph /  11.9 km/h 63 % 0.0 in /  0 mm
12:51 10.8 °F /  -11.8 °C 4.1 °F /  -15.5 °C 1002.9 in /  33958.2 hPa NW 3.9 mph /  6.3 km/h 3.9 mph /  6.3 km/h 63 % 0.0 in /  0 mm
12:54 10.8 °F /  -11.8 °C 4.1 °F /  -15.5 °C 1002.9 in /  33958.2 hPa West 2.6 mph /  4.2 km/h 3.2 mph /  5.1 km/h 63 % 0.0 in /  0 mm
12:59 10.9 °F /  -11.7 °C 4.1 °F /  -15.5 °C 1002.9 in /  33958.2 hPa WNW 5.6 mph /  9 km/h 5.6 mph /  9 km/h 63 % 0.0 in /  0 mm
13:04 10.9 °F /  -11.7 °C 4.1 °F /  -15.5 °C 1002.9 in /  33958.2 hPa NE 6.1 mph /  9.8 km/h 6.1 mph /  9.8 km/h 63 % 0.0 in /  0 mm
13:09 10.9 °F /  -11.7 °C 4.1 °F /  -15.5 °C 1002.9 in /  33958.2 hPa NE 3.7 mph /  6 km/h 3.7 mph /  6 km/h 63 % 0.0 in /  0 mm
13:10 11.0 °F /  -11.7 °C 4.2 °F /  -15.4 °C 1002.9 in /  33958.2 hPa NE 3.7 mph /  6 km/h 3.7 mph /  6 km/h 63 % 0.0 in /  0 mm
13:12 11.0 °F /  -11.7 °C 4.2 °F /  -15.4 °C 1002.9 in /  33958.2 hPa NE 5.6 mph /  9 km/h 5.6 mph /  9 km/h 63 % 0.0 in /  0 mm
13:17 11.3 °F /  -11.5 °C 4.5 °F /  -15.3 °C 1002.9 in /  33958.2 hPa NE 5.6 mph /  9 km/h 5.6 mph /  9 km/h 63 % 0.0 in /  0 mm
13:20 11.5 °F /  -11.4 °C 4.7 °F /  -15.2 °C 1002.9 in /  33958.2 hPa ENE 5.6 mph /  9 km/h 5.6 mph /  9 km/h 63 % 0.0 in /  0 mm
13:25 11.8 °F /  -11.2 °C 5.0 °F /  -15 °C 1002.9 in /  33958.2 hPa NNE 3.7 mph /  6 km/h 3.7 mph /  6 km/h 63 % 0.0 in /  0 mm
13:27 11.8 °F /  -11.2 °C 5.0 °F /  -15 °C 1002.9 in /  33958.2 hPa East 4.2 mph /  6.8 km/h 4.2 mph /  6.8 km/h 63 % 0.0 in /  0 mm
13:32 12.0 °F /  -11.1 °C 5.2 °F /  -14.9 °C 1002.9 in /  33958.2 hPa NE 7.4 mph /  11.9 km/h 7.4 mph /  11.9 km/h 63 % 0.0 in /  0 mm
13:34 12.0 °F /  -11.1 °C 5.2 °F /  -14.9 °C 1002.9 in /  33958.2 hPa NNE 5.6 mph /  9 km/h 5.6 mph /  9 km/h 63 % 0.0 in /  0 mm
13:39 12.1 °F /  -11.1 °C 5.3 °F /  -14.8 °C 1001.9 in /  33924.3 hPa NNE 7.4 mph /  11.9 km/h 7.4 mph /  11.9 km/h 63 % 0.0 in /  0 mm
13:41 12.1 °F /  -11.1 °C 5.3 °F /  -14.8 °C 1001.9 in /  33924.3 hPa ENE 5.6 mph /  9 km/h 5.6 mph /  9 km/h 63 % 0.0 in /  0 mm
13:47 12.1 °F /  -11.1 °C 5.3 °F /  -14.8 °C 1001.9 in /  33924.3 hPa North 9.3 mph /  15 km/h 9.3 mph /  15 km/h 63 % 0.0 in /  0 mm
13:52 12.3 °F /  -10.9 °C 5.7 °F /  -14.6 °C 1001.9 in /  33924.3 hPa ENE 1.9 mph /  3.1 km/h 1.9 mph /  3.1 km/h 64 % 0.0 in /  0 mm
13:56 12.4 °F /  -10.9 °C 5.8 °F /  -14.6 °C 1001.9 in /  33924.3 hPa NNE 1.9 mph /  3.1 km/h 1.9 mph /  3.1 km/h 64 % 0.0 in /  0 mm
14:03 12.5 °F /  -10.8 °C 5.9 °F /  -14.5 °C 1001.9 in /  33924.3 hPa Calm     64 % 0.0 in /  0 mm
14:08 12.6 °F /  -10.8 °C 5.9 °F /  -14.5 °C 1001.9 in /  33924.3 hPa Calm     64 % 0.0 in /  0 mm
14:13 12.7 °F /  -10.7 °C 5.8 °F /  -14.6 °C 1001.9 in /  33924.3 hPa NNE 3.7 mph /  6 km/h 3.7 mph /  6 km/h 63 % 0.0 in /  0 mm
14:14 12.7 °F /  -10.7 °C 5.8 °F /  -14.6 °C 1001.9 in /  33924.3 hPa NE 3.7 mph /  6 km/h 3.7 mph /  6 km/h 63 % 0.0 in /  0 mm
14:19 12.7 °F /  -10.7 °C 5.8 °F /  -14.6 °C 1001.9 in /  33924.3 hPa ENE 1.9 mph /  3.1 km/h 1.9 mph /  3.1 km/h 63 % 0.0 in /  0 mm
14:24 12.8 °F /  -10.7 °C 5.9 °F /  -14.5 °C 1001.9 in /  33924.3 hPa ENE 6.1 mph /  9.8 km/h 6.1 mph /  9.8 km/h 63 % 0.0 in /  0 mm
14:28 12.9 °F /  -10.6 °C 6.0 °F /  -14.4 °C 1001.9 in /  33924.3 hPa NE 5.6 mph /  9 km/h 5.6 mph /  9 km/h 63 % 0.0 in /  0 mm
14:30 12.9 °F /  -10.6 °C 6.0 °F /  -14.4 °C 1001.9 in /  33924.3 hPa NE 3.9 mph /  6.3 km/h 3.9 mph /  6.3 km/h 63 % 0.0 in /  0 mm
14:35 13.1 °F /  -10.5 °C 6.2 °F /  -14.3 °C 1001.9 in /  33924.3 hPa North 4.2 mph /  6.8 km/h 4.2 mph /  6.8 km/h 63 % 0.0 in /  0 mm
14:40 13.2 °F /  -10.4 °C 6.6 °F /  -14.1 °C 1000.9 in /  33890.5 hPa ENE 3.7 mph /  6 km/h 3.7 mph /  6 km/h 64 % 0.0 in /  0 mm
14:45 13.1 °F /  -10.5 °C 6.2 °F /  -14.3 °C 1000.9 in /  33890.5 hPa NE 7.4 mph /  11.9 km/h 7.4 mph /  11.9 km/h 63 % 0.0 in /  0 mm
14:49 13.2 °F /  -10.4 °C 6.3 °F /  -14.3 °C 1000.9 in /  33890.5 hPa ENE 5.6 mph /  9 km/h 5.6 mph /  9 km/h 63 % 0.0 in /  0 mm
14:54 13.1 °F /  -10.5 °C 6.2 °F /  -14.3 °C 1001.9 in /  33924.3 hPa ENE 9.3 mph /  15 km/h 9.3 mph /  15 km/h 63 % 0.0 in /  0 mm
14:59 13.1 °F /  -10.5 °C 6.2 °F /  -14.3 °C 1001.9 in /  33924.3 hPa NNE 7.4 mph /  11.9 km/h 7.4 mph /  11.9 km/h 63 % 0.0 in /  0 mm
15:04 13.1 °F /  -10.5 °C 6.2 °F /  -14.3 °C 1001.9 in /  33924.3 hPa NNE 11.1 mph /  17.9 km/h 11.1 mph /  17.9 km/h 63 % 0.0 in /  0 mm
15:05 13.2 °F /  -10.4 °C 6.6 °F /  -14.1 °C 1001.9 in /  33924.3 hPa NNE 9.3 mph /  15 km/h 9.3 mph /  15 km/h 64 % 0.0 in /  0 mm
15:10 13.3 °F /  -10.4 °C 6.6 °F /  -14.1 °C 1000.9 in /  33890.5 hPa East 9.7 mph /  15.6 km/h 9.7 mph /  15.6 km/h 64 % 0.0 in /  0 mm
15:11 13.3 °F /  -10.4 °C 6.6 °F /  -14.1 °C 1000.9 in /  33890.5 hPa East 9.3 mph /  15 km/h 9.3 mph /  15 km/h 64 % 0.0 in /  0 mm
15:15 13.3 °F /  -10.4 °C 6.6 °F /  -14.1 °C 1000.9 in /  33890.5 hPa NNE 7.4 mph /  11.9 km/h 7.4 mph /  11.9 km/h 64 % 0.0 in /  0 mm
15:20 13.3 °F /  -10.4 °C 6.6 °F /  -14.1 °C 1001.9 in /  33924.3 hPa NNE 7.9 mph /  12.7 km/h 7.9 mph /  12.7 km/h 64 % 0.0 in /  0 mm
15:23 13.3 °F /  -10.4 °C 6.6 °F /  -14.1 °C 1001.9 in /  33924.3 hPa NNE 9.3 mph /  15 km/h 9.3 mph /  15 km/h 64 % 0.0 in /  0 mm
15:28 13.5 °F /  -10.3 °C 7.1 °F /  -13.8 °C 1001.9 in /  33924.3 hPa East 13.7 mph /  22 km/h 13.7 mph /  22 km/h 65 % 0.0 in /  0 mm
15:33 13.6 °F /  -10.2 °C 7.4 °F /  -13.7 °C 1001.9 in /  33924.3 hPa ENE 11.1 mph /  17.9 km/h 11.1 mph /  17.9 km/h 66 % 0.0 in /  0 mm
15:38 13.6 °F /  -10.2 °C 7.4 °F /  -13.7 °C 1000.9 in /  33890.5 hPa East 13.0 mph /  20.9 km/h 13.0 mph /  20.9 km/h 66 % 0.0 in /  0 mm
15:39 13.6 °F /  -10.2 °C 7.4 °F /  -13.7 °C 1000.9 in /  33890.5 hPa NE 11.1 mph /  17.9 km/h 11.1 mph /  17.9 km/h 66 % 0.0 in /  0 mm
15:44 13.6 °F /  -10.2 °C 7.4 °F /  -13.7 °C 1000.9 in /  33890.5 hPa NE 9.3 mph /  15 km/h 9.3 mph /  15 km/h 66 % 0.0 in /  0 mm
15:45 13.6 °F /  -10.2 °C 7.4 °F /  -13.7 °C 1000.9 in /  33890.5 hPa ENE 12.6 mph /  20.3 km/h 12.6 mph /  20.3 km/h 66 % 0.0 in /  0 mm
15:50 13.6 °F /  -10.2 °C 7.4 °F /  -13.7 °C 1000.9 in /  33890.5 hPa East 11.9 mph /  19.2 km/h 11.9 mph /  19.2 km/h 66 % 0.0 in /  0 mm
15:55 13.6 °F /  -10.2 °C 7.4 °F /  -13.7 °C 999.9 in /  33856.6 hPa ENE 12.2 mph /  19.6 km/h 12.2 mph /  19.6 km/h 66 % 0.0 in /  0 mm
15:58 13.6 °F /  -10.2 °C 7.4 °F /  -13.7 °C 999.9 in /  33856.6 hPa NNE 14.8 mph /  23.8 km/h 14.8 mph /  23.8 km/h 66 % 0.0 in /  0 mm
16:03 13.5 °F /  -10.3 °C 7.3 °F /  -13.7 °C 999.9 in /  33856.6 hPa ENE 11.1 mph /  17.9 km/h 11.1 mph /  17.9 km/h 66 % 0.0 in /  0 mm
16:08 13.5 °F /  -10.3 °C 7.3 °F /  -13.7 °C 999.9 in /  33856.6 hPa NE 11.1 mph /  17.9 km/h 11.1 mph /  17.9 km/h 66 % 0.0 in /  0 mm
16:13 13.5 °F /  -10.3 °C 7.3 °F /  -13.7 °C 999.9 in /  33856.6 hPa ENE 13.0 mph /  20.9 km/h 13.0 mph /  20.9 km/h 66 % 0.0 in /  0 mm
16:18 13.5 °F /  -10.3 °C 7.3 °F /  -13.7 °C 999.9 in /  33856.6 hPa East 13.0 mph /  20.9 km/h 13.0 mph /  20.9 km/h 66 % 0.0 in /  0 mm
16:23 13.5 °F /  -10.3 °C 7.1 °F /  -13.8 °C 999.9 in /  33856.6 hPa North 13.0 mph /  20.9 km/h 13.0 mph /  20.9 km/h 65 % 0.0 in /  0 mm
16:25 13.5 °F /  -10.3 °C 7.1 °F /  -13.8 °C 999.9 in /  33856.6 hPa NNE 7.9 mph /  12.7 km/h 7.9 mph /  12.7 km/h 65 % 0.0 in /  0 mm
16:30 13.4 °F /  -10.3 °C 6.9 °F /  -13.9 °C 999.9 in /  33856.6 hPa East 9.3 mph /  15 km/h 9.3 mph /  15 km/h 65 % 0.0 in /  0 mm
16:31 13.4 °F /  -10.3 °C 6.9 °F /  -13.9 °C 999.9 in /  33856.6 hPa ENE 9.3 mph /  15 km/h 9.3 mph /  15 km/h 65 % 0.0 in /  0 mm
16:34 13.4 °F /  -10.3 °C 6.9 °F /  -13.9 °C 999.9 in /  33856.6 hPa ENE 16.7 mph /  26.9 km/h 16.7 mph /  26.9 km/h 65 % 0.0 in /  0 mm
16:39 13.4 °F /  -10.3 °C 6.9 °F /  -13.9 °C 999.9 in /  33856.6 hPa ENE 16.7 mph /  26.9 km/h 16.7 mph /  26.9 km/h 65 % 0.0 in /  0 mm
16:44 13.4 °F /  -10.3 °C 6.9 °F /  -13.9 °C 999.9 in /  33856.6 hPa NNE 18.0 mph /  29 km/h 18.0 mph /  29 km/h 65 % 0.0 in /  0 mm
16:49 13.4 °F /  -10.3 °C 6.9 °F /  -13.9 °C 999.9 in /  33856.6 hPa ENE 22.2 mph /  35.7 km/h 22.2 mph /  35.7 km/h 65 % 0.0 in /  0 mm
16:54 13.4 °F /  -10.3 °C 7.2 °F /  -13.8 °C 999.9 in /  33856.6 hPa East 15.6 mph /  25.1 km/h 15.6 mph /  25.1 km/h 66 % 0.0 in /  0 mm
16:57 13.4 °F /  -10.3 °C 7.2 °F /  -13.8 °C 999.9 in /  33856.6 hPa NE 16.7 mph /  26.9 km/h 16.7 mph /  26.9 km/h 66 % 0.0 in /  0 mm
17:01 13.4 °F /  -10.3 °C 7.2 °F /  -13.8 °C 999.9 in /  33856.6 hPa NNE 16.7 mph /  26.9 km/h 16.7 mph /  26.9 km/h 66 % 0.0 in /  0 mm
17:06 13.4 °F /  -10.3 °C 7.2 °F /  -13.8 °C 998.9 in /  33822.8 hPa ENE 13.0 mph /  20.9 km/h 13.0 mph /  20.9 km/h 66 % 0.0 in /  0 mm
17:11 13.4 °F /  -10.3 °C 7.2 °F /  -13.8 °C 998.9 in /  33822.8 hPa ENE 13.0 mph /  20.9 km/h 13.0 mph /  20.9 km/h 66 % 0.0 in /  0 mm
17:16 13.4 °F /  -10.3 °C 7.2 °F /  -13.8 °C 998.9 in /  33822.8 hPa ESE 14.8 mph /  23.8 km/h 14.8 mph /  23.8 km/h 66 % 0.0 in /  0 mm
17:21 13.3 °F /  -10.4 °C 7.1 °F /  -13.8 °C 999.9 in /  33856.6 hPa NNE 13.0 mph /  20.9 km/h 13.0 mph /  20.9 km/h 66 % 0.0 in /  0 mm
17:25 13.3 °F /  -10.4 °C 7.3 °F /  -13.7 °C 999.9 in /  33856.6 hPa North 9.3 mph /  15 km/h 9.3 mph /  15 km/h 67 % 0.0 in /  0 mm
17:30 13.3 °F /  -10.4 °C 7.3 °F /  -13.7 °C 999.9 in /  33856.6 hPa NNE 16.7 mph /  26.9 km/h 16.7 mph /  26.9 km/h 67 % 0.0 in /  0 mm
17:32 13.3 °F /  -10.4 °C 7.3 °F /  -13.7 °C 999.9 in /  33856.6 hPa NE 20.4 mph /  32.8 km/h 20.4 mph /  32.8 km/h 67 % 0.0 in /  0 mm
17:37 13.2 °F /  -10.4 °C 7.4 °F /  -13.7 °C 998.9 in /  33822.8 hPa ENE 15.6 mph /  25.1 km/h 15.6 mph /  25.1 km/h 68 % 0.0 in /  0 mm
17:39 13.2 °F /  -10.4 °C 7.4 °F /  -13.7 °C 998.9 in /  33822.8 hPa ENE 14.8 mph /  23.8 km/h 14.8 mph /  23.8 km/h 68 % 0.0 in /  0 mm
17:42 13.2 °F /  -10.4 °C 7.4 °F /  -13.7 °C 998.9 in /  33822.8 hPa NNE 13.0 mph /  20.9 km/h 13.0 mph /  20.9 km/h 68 % 0.0 in /  0 mm
17:47 13.1 °F /  -10.5 °C 7.3 °F /  -13.7 °C 998.9 in /  33822.8 hPa NNE 13.0 mph /  20.9 km/h 13.0 mph /  20.9 km/h 68 % 0.0 in /  0 mm
17:52 13.1 °F /  -10.5 °C 7.6 °F /  -13.6 °C 998.9 in /  33822.8 hPa East 14.8 mph /  23.8 km/h 14.8 mph /  23.8 km/h 69 % 0.0 in /  0 mm
17:57 13.1 °F /  -10.5 °C 7.6 °F /  -13.6 °C 998.9 in /  33822.8 hPa East 7.4 mph /  11.9 km/h 7.4 mph /  11.9 km/h 69 % 0.0 in /  0 mm
17:59 13.1 °F /  -10.5 °C 7.6 °F /  -13.6 °C 998.9 in /  33822.8 hPa ENE 11.1 mph /  17.9 km/h 11.1 mph /  17.9 km/h 69 % 0.0 in /  0 mm
18:04 13.1 °F /  -10.5 °C 7.7 °F /  -13.5 °C 998.9 in /  33822.8 hPa North 9.3 mph /  15 km/h 9.3 mph /  15 km/h 70 % 0.0 in /  0 mm
18:06 13.1 °F /  -10.5 °C 7.7 °F /  -13.5 °C 999.9 in /  33856.6 hPa ENE 9.3 mph /  15 km/h 9.3 mph /  15 km/h 70 % 0.0 in /  0 mm
18:07 13.1 °F /  -10.5 °C 7.9 °F /  -13.4 °C 999.9 in /  33856.6 hPa NNE 11.1 mph /  17.9 km/h 11.1 mph /  17.9 km/h 71 % 0.0 in /  0 mm
18:12 13.1 °F /  -10.5 °C 7.9 °F /  -13.4 °C 999.9 in /  33856.6 hPa ENE 14.8 mph /  23.8 km/h 14.8 mph /  23.8 km/h 71 % 0.0 in /  0 mm
18:20 13.1 °F /  -10.5 °C 8.2 °F /  -13.2 °C 999.9 in /  33856.6 hPa NE 12.9 mph /  20.8 km/h 24.1 mph /  38.8 km/h 72 % 0.0 in /  0 mm
18:25 13.0 °F /  -10.6 °C 8.1 °F /  -13.3 °C 998.9 in /  33822.8 hPa ENE 8.0 mph /  12.9 km/h 19.3 mph /  31.1 km/h 72 % 0.0 in /  0 mm
18:30 13.0 °F /  -10.6 °C 8.1 °F /  -13.3 °C 998.9 in /  33822.8 hPa ENE 9.7 mph /  15.6 km/h 19.3 mph /  31.1 km/h 72 % 0.0 in /  0 mm
18:35 13.0 °F /  -10.6 °C 8.1 °F /  -13.3 °C 998.9 in /  33822.8 hPa ESE 13.0 mph /  20.9 km/h 13.0 mph /  20.9 km/h 72 % 0.0 in /  0 mm
18:39 13.0 °F /  -10.6 °C 8.1 °F /  -13.3 °C 998.9 in /  33822.8 hPa East 5.6 mph /  9 km/h 5.6 mph /  9 km/h 72 % 0.0 in /  0 mm
18:44 13.0 °F /  -10.6 °C 8.1 °F /  -13.3 °C 998.9 in /  33822.8 hPa East 15.6 mph /  25.1 km/h 15.6 mph /  25.1 km/h 72 % 0.0 in /  0 mm
18:47 13.0 °F /  -10.6 °C 8.3 °F /  -13.2 °C 998.9 in /  33822.8 hPa ENE 9.3 mph /  15 km/h 9.3 mph /  15 km/h 73 % 0.0 in /  0 mm
18:50 12.5 °F /  -10.8 °C 9.7 °F /  -12.4 °C 997.9 in /  33788.9 hPa ESE 3.2 mph /  5.1 km/h 4.8 mph /  7.7 km/h 83 % 0.0 in /  0 mm
18:52 13.0 °F /  -10.6 °C 8.3 °F /  -13.2 °C 999.9 in /  33856.6 hPa ENE 9.3 mph /  15 km/h 9.3 mph /  15 km/h 73 % 0.0 in /  0 mm
18:53 13.0 °F /  -10.6 °C 8.3 °F /  -13.2 °C 999.9 in /  33856.6 hPa ENE 9.3 mph /  15 km/h 9.3 mph /  15 km/h 73 % 0.0 in /  0 mm
18:58 13.0 °F /  -10.6 °C 8.4 °F /  -13.1 °C 999.9 in /  33856.6 hPa NE 14.8 mph /  23.8 km/h 14.8 mph /  23.8 km/h 74 % 0.0 in /  0 mm
19:00 12.3 °F /  -10.9 °C 9.5 °F /  -12.5 °C 997.9 in /  33788.9 hPa SSW 3.2 mph /  5.1 km/h 3.2 mph /  5.1 km/h 83 % 1.0 in /  25.4 mm
19:02 13.0 °F /  -10.6 °C 8.4 °F /  -13.1 °C 999.9 in /  33856.6 hPa ENE 14.8 mph /  23.8 km/h 14.8 mph /  23.8 km/h 74 % 0.0 in /  0 mm
19:07 13.0 °F /  -10.6 °C 8.4 °F /  -13.1 °C 999.9 in /  33856.6 hPa ENE 11.1 mph /  17.9 km/h 11.1 mph /  17.9 km/h 74 % 0.0 in /  0 mm
19:09 13.0 °F /  -10.6 °C 8.4 °F /  -13.1 °C 999.9 in /  33856.6 hPa ESE 9.3 mph /  15 km/h 9.3 mph /  15 km/h 74 % 0.0 in /  0 mm
19:14 13.0 °F /  -10.6 °C 8.4 °F /  -13.1 °C 999.9 in /  33856.6 hPa ESE 11.1 mph /  17.9 km/h 11.1 mph /  17.9 km/h 74 % 0.0 in /  0 mm
19:19 13.0 °F /  -10.6 °C 8.4 °F /  -13.1 °C 999.9 in /  33856.6 hPa ENE 14.8 mph /  23.8 km/h 14.8 mph /  23.8 km/h 74 % 0.0 in /  0 mm
19:20 12.6 °F /  -10.8 °C 10.2 °F /  -12.1 °C 997.9 in /  33788.9 hPa ESE 8.0 mph /  12.9 km/h 9.7 mph /  15.6 km/h 85 % 0.0 in /  0 mm
19:21 13.0 °F /  -10.6 °C 8.7 °F /  -12.9 °C 998.9 in /  33822.8 hPa East 9.3 mph /  15 km/h 9.3 mph /  15 km/h 75 % 0.0 in /  0 mm
19:26 13.0 °F /  -10.6 °C 8.9 °F /  -12.8 °C 998.9 in /  33822.8 hPa East 11.1 mph /  17.9 km/h 11.1 mph /  17.9 km/h 76 % 0.0 in /  0 mm
19:30 12.8 °F /  -10.7 °C 10.3 °F /  -12.1 °C 997.9 in /  33788.9 hPa ESE 4.8 mph /  7.7 km/h 11.3 mph /  18.2 km/h 85 % 0.0 in /  0 mm
19:31 13.0 °F /  -10.6 °C 8.9 °F /  -12.8 °C 998.9 in /  33822.8 hPa ENE 13.0 mph /  20.9 km/h 13.0 mph /  20.9 km/h 76 % 0.0 in /  0 mm
19:36 13.0 °F /  -10.6 °C 8.9 °F /  -12.8 °C 999.9 in /  33856.6 hPa East 20.4 mph /  32.8 km/h 20.4 mph /  32.8 km/h 76 % 0.0 in /  0 mm
19:42 13.0 °F /  -10.6 °C 8.9 °F /  -12.8 °C 999.9 in /  33856.6 hPa ENE 16.7 mph /  26.9 km/h 16.7 mph /  26.9 km/h 76 % 0.0 in /  0 mm
19:43 13.0 °F /  -10.6 °C 8.9 °F /  -12.8 °C 999.9 in /  33856.6 hPa East 13.0 mph /  20.9 km/h 13.0 mph /  20.9 km/h 76 % 0.0 in /  0 mm
19:47 13.0 °F /  -10.6 °C 8.7 °F /  -12.9 °C 999.9 in /  33856.6 hPa ENE 27.4 mph /  44.1 km/h 27.4 mph /  44.1 km/h 75 % 0.0 in /  0 mm
19:49 13.0 °F /  -10.6 °C 8.7 °F /  -12.9 °C 999.9 in /  33856.6 hPa ENE 11.1 mph /  17.9 km/h 11.1 mph /  17.9 km/h 75 % 0.0 in /  0 mm
19:55 13.0 °F /  -10.6 °C 8.7 °F /  -12.9 °C 998.9 in /  33822.8 hPa NE 20.1 mph /  32.3 km/h 20.1 mph /  32.3 km/h 75 % 0.0 in /  0 mm
19:59 13.0 °F /  -10.6 °C 8.4 °F /  -13.1 °C 998.9 in /  33822.8 hPa NE 16.7 mph /  26.9 km/h 16.7 mph /  26.9 km/h 74 % 0.0 in /  0 mm
20:00 12.9 °F /  -10.6 °C 10.6 °F /  -11.9 °C 998.9 in /  33822.8 hPa ESE 9.7 mph /  15.6 km/h 9.7 mph /  15.6 km/h 86 % 0.0 in /  0 mm
20:04 13.0 °F /  -10.6 °C 8.7 °F /  -12.9 °C 998.9 in /  33822.8 hPa East 16.7 mph /  26.9 km/h 16.7 mph /  26.9 km/h 75 % 0.0 in /  0 mm
20:09 13.0 °F /  -10.6 °C 8.7 °F /  -12.9 °C 998.9 in /  33822.8 hPa NE 14.8 mph /  23.8 km/h 14.8 mph /  23.8 km/h 75 % 0.0 in /  0 mm
20:10 12.8 °F /  -10.7 °C 10.7 °F /  -11.8 °C 999.9 in /  33856.6 hPa ESE 3.2 mph /  5.1 km/h 6.4 mph /  10.3 km/h 87 % 0.0 in /  0 mm
20:14 13.0 °F /  -10.6 °C 8.7 °F /  -12.9 °C 998.9 in /  33822.8 hPa ENE 16.7 mph /  26.9 km/h 16.7 mph /  26.9 km/h 75 % 0.0 in /  0 mm
20:15 13.0 °F /  -10.6 °C 8.7 °F /  -12.9 °C 998.9 in /  33822.8 hPa ESE 13.0 mph /  20.9 km/h 13.0 mph /  20.9 km/h 75 % 0.0 in /  0 mm
20:20 13.0 °F /  -10.6 °C 8.7 °F /  -12.9 °C 998.9 in /  33822.8 hPa ENE 20.4 mph /  32.8 km/h 20.4 mph /  32.8 km/h 75 % 0.0 in /  0 mm
20:25 13.0 °F /  -10.6 °C 8.7 °F /  -12.9 °C 998.9 in /  33822.8 hPa ENE 18.5 mph /  29.8 km/h 18.5 mph /  29.8 km/h 75 % 0.0 in /  0 mm
20:30 13.0 °F /  -10.6 °C 8.9 °F /  -12.8 °C 998.9 in /  33822.8 hPa ESE 16.7 mph /  26.9 km/h 16.7 mph /  26.9 km/h 76 % 0.0 in /  0 mm
20:35 13.0 °F /  -10.6 °C 8.9 °F /  -12.8 °C 998.9 in /  33822.8 hPa North 22.2 mph /  35.7 km/h 22.2 mph /  35.7 km/h 76 % 0.0 in /  0 mm
20:40 13.0 °F /  -10.6 °C 8.9 °F /  -12.8 °C 997.9 in /  33788.9 hPa NNE 12.2 mph /  19.6 km/h 12.2 mph /  19.6 km/h 76 % 0.0 in /  0 mm
20:45 13.0 °F /  -10.6 °C 8.9 °F /  -12.8 °C 997.9 in /  33788.9 hPa East 18.5 mph /  29.8 km/h 18.5 mph /  29.8 km/h 76 % 0.0 in /  0 mm
20:46 13.1 °F /  -10.5 °C 8.9 °F /  -12.8 °C 997.9 in /  33788.9 hPa ENE 18.5 mph /  29.8 km/h 18.5 mph /  29.8 km/h 76 % 0.0 in /  0 mm
20:51 13.1 °F /  -10.5 °C 9.2 °F /  -12.7 °C 997.9 in /  33788.9 hPa NNE 16.1 mph /  25.9 km/h 16.1 mph /  25.9 km/h 77 % 0.0 in /  0 mm
20:52 13.1 °F /  -10.5 °C 9.2 °F /  -12.7 °C 997.9 in /  33788.9 hPa NE 17.2 mph /  27.7 km/h 17.2 mph /  27.7 km/h 77 % 0.0 in /  0 mm
20:57 13.1 °F /  -10.5 °C 9.2 °F /  -12.7 °C 997.9 in /  33788.9 hPa NNE 16.7 mph /  26.9 km/h 16.7 mph /  26.9 km/h 77 % 0.0 in /  0 mm
21:02 13.2 °F /  -10.4 °C 9.3 °F /  -12.6 °C 997.9 in /  33788.9 hPa ENE 22.2 mph /  35.7 km/h 22.2 mph /  35.7 km/h 77 % 0.0 in /  0 mm
21:05 12.1 °F /  -11.1 °C 9.7 °F /  -12.4 °C 998.9 in /  33822.8 hPa ENE 4.8 mph /  7.7 km/h 9.7 mph /  15.6 km/h 85 % 0.0 in /  0 mm
21:06 13.2 °F /  -10.4 °C 9.3 °F /  -12.6 °C 997.9 in /  33788.9 hPa East 22.2 mph /  35.7 km/h 22.2 mph /  35.7 km/h 77 % 0.0 in /  0 mm
21:11 13.2 °F /  -10.4 °C 9.3 °F /  -12.6 °C 997.9 in /  33788.9 hPa NE 19.5 mph /  31.4 km/h 19.5 mph /  31.4 km/h 77 % 0.0 in /  0 mm
21:16 13.2 °F /  -10.4 °C 9.3 °F /  -12.6 °C 997.9 in /  33788.9 hPa North 14.8 mph /  23.8 km/h 14.8 mph /  23.8 km/h 77 % 0.0 in /  0 mm
21:18 13.2 °F /  -10.4 °C 9.3 °F /  -12.6 °C 997.9 in /  33788.9 hPa NE 11.1 mph /  17.9 km/h 11.1 mph /  17.9 km/h 77 % 0.0 in /  0 mm
21:23 13.2 °F /  -10.4 °C 9.3 °F /  -12.6 °C 997.9 in /  33788.9 hPa ENE 14.8 mph /  23.8 km/h 14.8 mph /  23.8 km/h 77 % 0.0 in /  0 mm
21:25 11.9 °F /  -11.2 °C 9.4 °F /  -12.6 °C 998.9 in /  33822.8 hPa ENE 8.0 mph /  12.9 km/h 11.3 mph /  18.2 km/h 85 % 1.0 in /  25.4 mm
21:26 13.1 °F /  -10.5 °C 9.2 °F /  -12.7 °C 997.9 in /  33788.9 hPa ENE 9.7 mph /  15.6 km/h 9.7 mph /  15.6 km/h 77 % 0.0 in /  0 mm
21:28 13.1 °F /  -10.5 °C 9.2 °F /  -12.7 °C 997.9 in /  33788.9 hPa NNE 11.1 mph /  17.9 km/h 11.1 mph /  17.9 km/h 77 % 0.0 in /  0 mm
21:33 13.1 °F /  -10.5 °C 9.2 °F /  -12.7 °C 997.9 in /  33788.9 hPa ESE 13.0 mph /  20.9 km/h 13.0 mph /  20.9 km/h 77 % 0.0 in /  0 mm
21:35 11.9 °F /  -11.2 °C 9.4 °F /  -12.6 °C 998.9 in /  33822.8 hPa ENE 4.8 mph /  7.7 km/h 9.7 mph /  15.6 km/h 85 % 0.0 in /  0 mm
21:38 13.2 °F /  -10.4 °C 9.3 °F /  -12.6 °C 996.8 in /  33751.6 hPa East 14.8 mph /  23.8 km/h 14.8 mph /  23.8 km/h 77 % 0.0 in /  0 mm
21:43 13.2 °F /  -10.4 °C 9.4 °F /  -12.6 °C 996.8 in /  33751.6 hPa ENE 20.4 mph /  32.8 km/h 20.4 mph /  32.8 km/h 78 % 0.0 in /  0 mm
21:45 11.9 °F /  -11.2 °C 9.6 °F /  -12.4 °C 998.9 in /  33822.8 hPa East 4.8 mph /  7.7 km/h 11.3 mph /  18.2 km/h 86 % 0.0 in /  0 mm
21:48 13.2 °F /  -10.4 °C 9.4 °F /  -12.6 °C 996.8 in /  33751.6 hPa East 18.5 mph /  29.8 km/h 18.5 mph /  29.8 km/h 78 % 0.0 in /  0 mm
21:52 13.2 °F /  -10.4 °C 9.6 °F /  -12.4 °C 997.9 in /  33788.9 hPa East 9.7 mph /  15.6 km/h 9.7 mph /  15.6 km/h 79 % 0.0 in /  0 mm
21:55 12.0 °F /  -11.1 °C 9.7 °F /  -12.4 °C 998.9 in /  33822.8 hPa East 8.0 mph /  12.9 km/h 16.1 mph /  25.9 km/h 86 % 0.0 in /  0 mm
21:57 13.1 °F /  -10.5 °C 9.3 °F /  -12.6 °C 997.9 in /  33788.9 hPa ENE 9.3 mph /  15 km/h 9.3 mph /  15 km/h 78 % 0.0 in /  0 mm
22:02 13.1 °F /  -10.5 °C 9.6 °F /  -12.4 °C 997.9 in /  33788.9 hPa ENE 20.4 mph /  32.8 km/h 20.4 mph /  32.8 km/h 79 % 0.0 in /  0 mm
22:05 12.0 °F /  -11.1 °C 9.9 °F /  -12.3 °C 998.9 in /  33822.8 hPa East 8.0 mph /  12.9 km/h 8.0 mph /  12.9 km/h 87 % 0.0 in /  0 mm
22:07 13.2 °F /  -10.4 °C 9.6 °F /  -12.4 °C 996.8 in /  33751.6 hPa ESE 16.4 mph /  26.4 km/h 16.4 mph /  26.4 km/h 79 % 0.0 in /  0 mm
22:13 13.1 °F /  -10.5 °C 9.6 °F /  -12.4 °C 996.8 in /  33751.6 hPa East 20.4 mph /  32.8 km/h 20.4 mph /  32.8 km/h 79 % 0.0 in /  0 mm
22:15 11.9 °F /  -11.2 °C 9.4 °F /  -12.6 °C 998.9 in /  33822.8 hPa East 4.8 mph /  7.7 km/h 9.7 mph /  15.6 km/h 85 % 0.0 in /  0 mm
22:18 13.0 °F /  -10.6 °C 9.6 °F /  -12.4 °C 996.8 in /  33751.6 hPa ENE 14.8 mph /  23.8 km/h 14.8 mph /  23.8 km/h 80 % 0.0 in /  0 mm
22:23 12.9 °F /  -10.6 °C 9.7 °F /  -12.4 °C 996.8 in /  33751.6 hPa East 16.7 mph /  26.9 km/h 16.7 mph /  26.9 km/h 81 % 0.0 in /  0 mm
22:27 12.7 °F /  -10.7 °C 9.7 °F /  -12.4 °C 996.8 in /  33751.6 hPa ENE 10.0 mph /  16.1 km/h 10.0 mph /  16.1 km/h 82 % 1.0 in /  25.4 mm
22:32 12.6 °F /  -10.8 °C 9.6 °F /  -12.4 °C 996.8 in /  33751.6 hPa SSE 13.0 mph /  20.9 km/h 13.0 mph /  20.9 km/h 82 % 3.0 in /  76.2 mm
22:35 11.8 °F /  -11.2 °C 9.0 °F /  -12.8 °C 998.9 in /  33822.8 hPa SE 3.2 mph /  5.1 km/h 8.0 mph /  12.9 km/h 83 % 0.0 in /  0 mm
22:37 12.6 °F /  -10.8 °C 9.8 °F /  -12.3 °C 997.9 in /  33788.9 hPa SW 9.7 mph /  15.6 km/h 9.7 mph /  15.6 km/h 83 % 3.0 in /  76.2 mm
22:39 12.6 °F /  -10.8 °C 9.8 °F /  -12.3 °C 997.9 in /  33788.9 hPa SSE 14.8 mph /  23.8 km/h 14.8 mph /  23.8 km/h 83 % 4.1 in /  104.14 mm
22:44 12.5 °F /  -10.8 °C 9.7 °F /  -12.4 °C 997.9 in /  33788.9 hPa SSE 5.6 mph /  9 km/h 5.6 mph /  9 km/h 83 % 6.3 in /  160.02 mm
22:49 12.0 °F /  -11.1 °C 9.2 °F /  -12.7 °C 997.9 in /  33788.9 hPa NNW 9.3 mph /  15 km/h 9.3 mph /  15 km/h 83 % 6.3 in /  160.02 mm
22:50 12.0 °F /  -11.1 °C 9.2 °F /  -12.7 °C 997.9 in /  33788.9 hPa ESE 9.0 mph /  14.5 km/h 9.0 mph /  14.5 km/h 83 % 6.3 in /  160.02 mm
22:55 11.9 °F /  -11.2 °C 9.4 °F /  -12.6 °C 997.9 in /  33788.9 hPa WNW 6.4 mph /  10.3 km/h 6.4 mph /  10.3 km/h 85 % 6.3 in /  160.02 mm
23:01 12.2 °F /  -11 °C 9.8 °F /  -12.3 °C 997.9 in /  33788.9 hPa SE 9.3 mph /  15 km/h 9.3 mph /  15 km/h 85 % 6.3 in /  160.02 mm
23:05 11.6 °F /  -11.3 °C 8.4 °F /  -13.1 °C 999.9 in /  33856.6 hPa ESE 1.6 mph /  2.6 km/h 4.8 mph /  7.7 km/h 81 % 0.0 in /  0 mm
23:06 12.4 °F /  -10.9 °C 9.9 °F /  -12.3 °C 997.9 in /  33788.9 hPa ESE 3.7 mph /  6 km/h 3.7 mph /  6 km/h 85 % 6.3 in /  160.02 mm
23:08 12.4 °F /  -10.9 °C 9.9 °F /  -12.3 °C 997.9 in /  33788.9 hPa SSW 5.6 mph /  9 km/h 5.6 mph /  9 km/h 85 % 6.3 in /  160.02 mm
23:13 12.3 °F /  -10.9 °C 9.8 °F /  -12.3 °C 997.9 in /  33788.9 hPa SW 2.3 mph /  3.7 km/h 2.3 mph /  3.7 km/h 85 % 6.3 in /  160.02 mm
23:15 11.5 °F /  -11.4 °C 8.2 °F /  -13.2 °C 999.9 in /  33856.6 hPa SE 4.8 mph /  7.7 km/h 4.8 mph /  7.7 km/h 80 % 0.0 in /  0 mm
23:18 12.4 °F /  -10.9 °C 10.1 °F /  -12.2 °C 997.9 in /  33788.9 hPa SSW 13.0 mph /  20.9 km/h 13.0 mph /  20.9 km/h 86 % 6.3 in /  160.02 mm
23:20 12.5 °F /  -10.8 °C 10.2 °F /  -12.1 °C 997.9 in /  33788.9 hPa East 13.0 mph /  20.9 km/h 13.0 mph /  20.9 km/h 86 % 6.3 in /  160.02 mm
23:23 12.6 °F /  -10.8 °C 10.2 °F /  -12.1 °C 997.9 in /  33788.9 hPa ESE 16.7 mph /  26.9 km/h 16.7 mph /  26.9 km/h 85 % 6.3 in /  160.02 mm
23:25 11.5 °F /  -11.4 °C 8.2 °F /  -13.2 °C 999.9 in /  33856.6 hPa ESE 3.2 mph /  5.1 km/h 4.8 mph /  7.7 km/h 80 % 0.0 in /  0 mm
23:28 12.8 °F /  -10.7 °C 10.3 °F /  -12.1 °C 997.9 in /  33788.9 hPa ENE 13.0 mph /  20.9 km/h 13.0 mph /  20.9 km/h 85 % 5.3 in /  134.62 mm
23:31 12.8 °F /  -10.7 °C 10.3 °F /  -12.1 °C 997.9 in /  33788.9 hPa East 13.0 mph /  20.9 km/h 13.0 mph /  20.9 km/h 85 % 4.3 in /  109.22 mm
23:32 12.8 °F /  -10.7 °C 10.3 °F /  -12.1 °C 997.9 in /  33788.9 hPa ENE 13.0 mph /  20.9 km/h 13.0 mph /  20.9 km/h 85 % 3.3 in /  83.82 mm
23:35 11.3 °F /  -11.5 °C 8.0 °F /  -13.3 °C 998.9 in /  33822.8 hPa Calm   3.2 mph /  5.1 km/h 80 % 0.0 in /  0 mm
23:38 12.8 °F /  -10.7 °C 10.3 °F /  -12.1 °C 997.9 in /  33788.9 hPa SE 9.3 mph /  15 km/h 9.3 mph /  15 km/h 85 % 2.3 in /  58.42 mm
23:39 12.8 °F /  -10.7 °C 10.3 °F /  -12.1 °C 997.9 in /  33788.9 hPa ESE 9.3 mph /  15 km/h 9.3 mph /  15 km/h 85 % 2.3 in /  58.42 mm
23:44 12.7 °F /  -10.7 °C 10.2 °F /  -12.1 °C 997.9 in /  33788.9 hPa East 7.4 mph /  11.9 km/h 7.4 mph /  11.9 km/h 85 % 0.0 in /  0 mm
23:45 11.2 °F /  -11.6 °C 7.9 °F /  -13.4 °C 998.9 in /  33822.8 hPa NNE 3.2 mph /  5.1 km/h 4.8 mph /  7.7 km/h 80 % 0.0 in /  0 mm
23:49 12.8 °F /  -10.7 °C 10.3 °F /  -12.1 °C 997.9 in /  33788.9 hPa ENE 3.7 mph /  6 km/h 3.7 mph /  6 km/h 85 % 4.1 in /  104.14 mm
23:54 12.8 °F /  -10.7 °C 10.3 °F /  -12.1 °C 998.9 in /  33822.8 hPa ENE 5.6 mph /  9 km/h 5.6 mph /  9 km/h 85 % 4.1 in /  104.14 mm
Meteo Sesrovires
Elogis d' Weather Underground - 1.75 mb

Guio original per  Jim McMurry - jmcmurry@mwt.net Adaptat per a la plantilla per  Wim van der Kuil - Leuven-Template.eu

Trobareu la nostra informacio del temps tambe a:

Weather Underground

AWEKAS